sensor_id;sensor_type;location;lat;lon;timestamp;P1;durP1;ratioP1;P2;durP2;ratioP2
5696;SDS011;2873;50.966;7.210;2022-10-12T00:00:29;9.00;;;5.00;;
5696;SDS011;2873;50.966;7.210;2022-10-12T00:02:55;11.73;;;5.30;;
5696;SDS011;2873;50.966;7.210;2022-10-12T00:05:21;7.37;;;4.10;;
5696;SDS011;2873;50.966;7.210;2022-10-12T00:07:46;9.13;;;4.50;;
5696;SDS011;2873;50.966;7.210;2022-10-12T00:10:12;10.40;;;5.40;;
5696;SDS011;2873;50.966;7.210;2022-10-12T00:12:37;13.68;;;4.70;;
5696;SDS011;2873;50.966;7.210;2022-10-12T00:15:03;9.13;;;4.80;;
5696;SDS011;2873;50.966;7.210;2022-10-12T00:17:29;9.98;;;4.60;;
5696;SDS011;2873;50.966;7.210;2022-10-12T00:19:55;12.10;;;5.93;;
5696;SDS011;2873;50.966;7.210;2022-10-12T00:22:20;11.40;;;6.55;;
5696;SDS011;2873;50.966;7.210;2022-10-12T00:24:46;14.20;;;6.40;;
5696;SDS011;2873;50.966;7.210;2022-10-12T00:27:11;13.02;;;6.00;;
5696;SDS011;2873;50.966;7.210;2022-10-12T00:29:37;8.70;;;5.50;;
5696;SDS011;2873;50.966;7.210;2022-10-12T00:32:03;12.35;;;5.40;;
5696;SDS011;2873;50.966;7.210;2022-10-12T00:34:28;14.30;;;5.10;;
5696;SDS011;2873;50.966;7.210;2022-10-12T00:36:54;10.90;;;5.57;;
5696;SDS011;2873;50.966;7.210;2022-10-12T00:39:20;15.32;;;5.30;;
5696;SDS011;2873;50.966;7.210;2022-10-12T00:41:46;12.45;;;4.82;;
5696;SDS011;2873;50.966;7.210;2022-10-12T00:46:56;8.60;;;4.60;;
5696;SDS011;2873;50.966;7.210;2022-10-12T00:49:24;14.37;;;5.03;;
5696;SDS011;2873;50.966;7.210;2022-10-12T00:51:51;12.02;;;5.50;;
5696;SDS011;2873;50.966;7.210;2022-10-12T00:54:23;13.05;;;5.40;;
5696;SDS011;2873;50.966;7.210;2022-10-12T00:56:53;13.23;;;5.93;;
5696;SDS011;2873;50.966;7.210;2022-10-12T00:59:27;9.02;;;5.50;;
5696;SDS011;2873;50.966;7.210;2022-10-12T01:02:02;8.90;;;4.90;;
5696;SDS011;2873;50.966;7.210;2022-10-12T01:04:27;9.73;;;5.20;;
5696;SDS011;2873;50.966;7.210;2022-10-12T01:06:55;9.30;;;5.40;;
5696;SDS011;2873;50.966;7.210;2022-10-12T01:09:21;9.85;;;5.20;;
5696;SDS011;2873;50.966;7.210;2022-10-12T01:11:47;9.23;;;4.90;;
5696;SDS011;2873;50.966;7.210;2022-10-12T01:14:12;14.05;;;5.40;;
5696;SDS011;2873;50.966;7.210;2022-10-12T01:22:11;12.57;;;5.40;;
5696;SDS011;2873;50.966;7.210;2022-10-12T01:30:07;11.37;;;5.03;;
5696;SDS011;2873;50.966;7.210;2022-10-12T01:38:47;12.53;;;6.30;;
5696;SDS011;2873;50.966;7.210;2022-10-12T01:41:32;9.40;;;4.95;;
5696;SDS011;2873;50.966;7.210;2022-10-12T01:44:11;12.48;;;5.65;;
5696;SDS011;2873;50.966;7.210;2022-10-12T01:46:48;12.25;;;5.68;;
5696;SDS011;2873;50.966;7.210;2022-10-12T01:49:16;9.63;;;4.97;;
5696;SDS011;2873;50.966;7.210;2022-10-12T01:51:58;15.88;;;5.68;;
5696;SDS011;2873;50.966;7.210;2022-10-12T01:57:40;8.53;;;5.40;;
5696;SDS011;2873;50.966;7.210;2022-10-12T02:00:13;13.90;;;5.60;;
5696;SDS011;2873;50.966;7.210;2022-10-12T02:05:59;10.40;;;5.20;;
5696;SDS011;2873;50.966;7.210;2022-10-12T02:08:45;10.85;;;5.20;;
5696;SDS011;2873;50.966;7.210;2022-10-12T02:11:22;13.70;;;5.70;;
5696;SDS011;2873;50.966;7.210;2022-10-12T02:13:50;13.95;;;5.05;;
5696;SDS011;2873;50.966;7.210;2022-10-12T02:16:27;14.43;;;5.50;;
5696;SDS011;2873;50.966;7.210;2022-10-12T02:18:57;11.00;;;5.63;;
5696;SDS011;2873;50.966;7.210;2022-10-12T02:21:26;11.30;;;5.80;;
5696;SDS011;2873;50.966;7.210;2022-10-12T02:23:55;11.55;;;5.60;;
5696;SDS011;2873;50.966;7.210;2022-10-12T02:26:25;14.38;;;6.63;;
5696;SDS011;2873;50.966;7.210;2022-10-12T02:28:52;13.45;;;6.40;;
5696;SDS011;2873;50.966;7.210;2022-10-12T02:31:27;16.77;;;6.38;;
5696;SDS011;2873;50.966;7.210;2022-10-12T02:34:02;10.32;;;5.88;;
5696;SDS011;2873;50.966;7.210;2022-10-12T02:37:08;10.10;;;5.05;;
5696;SDS011;2873;50.966;7.210;2022-10-12T02:39:27;15.10;;;6.10;;
5696;SDS011;2873;50.966;7.210;2022-10-12T02:42:00;8.73;;;5.30;;
5696;SDS011;2873;50.966;7.210;2022-10-12T02:44:32;10.07;;;5.65;;
5696;SDS011;2873;50.966;7.210;2022-10-12T02:47:01;12.85;;;5.10;;
5696;SDS011;2873;50.966;7.210;2022-10-12T02:49:29;8.55;;;4.57;;
5696;SDS011;2873;50.966;7.210;2022-10-12T02:51:58;7.80;;;4.72;;
5696;SDS011;2873;50.966;7.210;2022-10-12T02:54:24;9.43;;;5.07;;
5696;SDS011;2873;50.966;7.210;2022-10-12T02:56:50;9.37;;;5.40;;
5696;SDS011;2873;50.966;7.210;2022-10-12T02:59:16;15.15;;;5.07;;
5696;SDS011;2873;50.966;7.210;2022-10-12T03:01:43;7.22;;;4.68;;
5696;SDS011;2873;50.966;7.210;2022-10-12T03:04:09;6.18;;;4.30;;
5696;SDS011;2873;50.966;7.210;2022-10-12T03:06:35;8.13;;;4.30;;
5696;SDS011;2873;50.966;7.210;2022-10-12T03:09:00;8.00;;;4.70;;
5696;SDS011;2873;50.966;7.210;2022-10-12T03:11:26;5.07;;;4.00;;
5696;SDS011;2873;50.966;7.210;2022-10-12T03:13:52;6.75;;;4.50;;
5696;SDS011;2873;50.966;7.210;2022-10-12T03:16:19;9.02;;;4.28;;
5696;SDS011;2873;50.966;7.210;2022-10-12T03:18:45;6.63;;;4.50;;
5696;SDS011;2873;50.966;7.210;2022-10-12T03:21:11;8.10;;;3.97;;
5696;SDS011;2873;50.966;7.210;2022-10-12T03:23:37;10.32;;;4.30;;
5696;SDS011;2873;50.966;7.210;2022-10-12T03:26:03;6.60;;;4.03;;
5696;SDS011;2873;50.966;7.210;2022-10-12T03:28:29;10.85;;;3.92;;
5696;SDS011;2873;50.966;7.210;2022-10-12T03:30:55;8.40;;;4.90;;
5696;SDS011;2873;50.966;7.210;2022-10-12T03:33:20;8.47;;;4.30;;
5696;SDS011;2873;50.966;7.210;2022-10-12T03:35:46;7.03;;;3.93;;
5696;SDS011;2873;50.966;7.210;2022-10-12T03:38:12;8.45;;;4.10;;
5696;SDS011;2873;50.966;7.210;2022-10-12T03:40:40;7.40;;;4.00;;
5696;SDS011;2873;50.966;7.210;2022-10-12T03:43:05;9.60;;;3.80;;
5696;SDS011;2873;50.966;7.210;2022-10-12T03:45:31;7.80;;;3.87;;
5696;SDS011;2873;50.966;7.210;2022-10-12T03:47:57;6.40;;;3.53;;
5696;SDS011;2873;50.966;7.210;2022-10-12T03:50:23;6.88;;;3.60;;
5696;SDS011;2873;50.966;7.210;2022-10-12T03:52:48;4.77;;;3.80;;
5696;SDS011;2873;50.966;7.210;2022-10-12T03:55:14;6.93;;;3.50;;
5696;SDS011;2873;50.966;7.210;2022-10-12T03:57:40;8.02;;;3.30;;
5696;SDS011;2873;50.966;7.210;2022-10-12T04:00:05;7.40;;;4.10;;
5696;SDS011;2873;50.966;7.210;2022-10-12T04:02:31;5.63;;;3.63;;
5696;SDS011;2873;50.966;7.210;2022-10-12T04:04:57;10.10;;;3.83;;
5696;SDS011;2873;50.966;7.210;2022-10-12T04:07:23;13.27;;;4.10;;
5696;SDS011;2873;50.966;7.210;2022-10-12T04:09:49;5.50;;;3.80;;
5696;SDS011;2873;50.966;7.210;2022-10-12T04:12:14;8.00;;;3.60;;
5696;SDS011;2873;50.966;7.210;2022-10-12T04:14:40;6.43;;;3.90;;
5696;SDS011;2873;50.966;7.210;2022-10-12T04:17:05;8.23;;;3.90;;
5696;SDS011;2873;50.966;7.210;2022-10-12T04:19:31;5.45;;;3.60;;
5696;SDS011;2873;50.966;7.210;2022-10-12T04:21:56;9.43;;;3.60;;
5696;SDS011;2873;50.966;7.210;2022-10-12T04:24:22;6.07;;;3.78;;
5696;SDS011;2873;50.966;7.210;2022-10-12T04:26:47;7.07;;;3.90;;
5696;SDS011;2873;50.966;7.210;2022-10-12T04:29:13;6.30;;;3.97;;
5696;SDS011;2873;50.966;7.210;2022-10-12T04:31:39;6.60;;;3.93;;
5696;SDS011;2873;50.966;7.210;2022-10-12T04:34:05;9.07;;;3.70;;
5696;SDS011;2873;50.966;7.210;2022-10-12T04:36:30;7.40;;;4.30;;
5696;SDS011;2873;50.966;7.210;2022-10-12T04:38:56;6.50;;;3.70;;
5696;SDS011;2873;50.966;7.210;2022-10-12T04:41:22;8.10;;;4.07;;
5696;SDS011;2873;50.966;7.210;2022-10-12T04:43:47;8.77;;;4.63;;
5696;SDS011;2873;50.966;7.210;2022-10-12T04:46:13;9.63;;;3.90;;
5696;SDS011;2873;50.966;7.210;2022-10-12T04:48:39;12.32;;;4.47;;
5696;SDS011;2873;50.966;7.210;2022-10-12T04:51:04;9.10;;;5.10;;
5696;SDS011;2873;50.966;7.210;2022-10-12T04:53:30;8.85;;;5.20;;
5696;SDS011;2873;50.966;7.210;2022-10-12T04:55:56;7.43;;;4.30;;
5696;SDS011;2873;50.966;7.210;2022-10-12T04:58:25;8.33;;;4.50;;
5696;SDS011;2873;50.966;7.210;2022-10-12T05:00:51;9.80;;;3.90;;
5696;SDS011;2873;50.966;7.210;2022-10-12T05:03:16;9.97;;;4.60;;
5696;SDS011;2873;50.966;7.210;2022-10-12T05:05:43;7.40;;;4.40;;
5696;SDS011;2873;50.966;7.210;2022-10-12T05:08:09;7.60;;;4.55;;
5696;SDS011;2873;50.966;7.210;2022-10-12T05:10:34;8.00;;;4.90;;
5696;SDS011;2873;50.966;7.210;2022-10-12T05:13:00;10.85;;;5.38;;
5696;SDS011;2873;50.966;7.210;2022-10-12T05:15:25;10.00;;;5.10;;
5696;SDS011;2873;50.966;7.210;2022-10-12T05:17:51;10.93;;;4.85;;
5696;SDS011;2873;50.966;7.210;2022-10-12T05:20:16;12.53;;;5.07;;
5696;SDS011;2873;50.966;7.210;2022-10-12T05:22:42;13.43;;;6.90;;
5696;SDS011;2873;50.966;7.210;2022-10-12T05:25:08;16.77;;;6.68;;
5696;SDS011;2873;50.966;7.210;2022-10-12T05:27:33;13.93;;;7.00;;
5696;SDS011;2873;50.966;7.210;2022-10-12T05:29:59;12.70;;;5.67;;
5696;SDS011;2873;50.966;7.210;2022-10-12T05:32:25;10.87;;;4.70;;
5696;SDS011;2873;50.966;7.210;2022-10-12T05:34:50;9.50;;;4.20;;
5696;SDS011;2873;50.966;7.210;2022-10-12T05:37:16;9.77;;;4.40;;
5696;SDS011;2873;50.966;7.210;2022-10-12T05:39:41;10.53;;;4.40;;
5696;SDS011;2873;50.966;7.210;2022-10-12T05:42:07;8.23;;;4.53;;
5696;SDS011;2873;50.966;7.210;2022-10-12T05:44:32;6.10;;;4.60;;
5696;SDS011;2873;50.966;7.210;2022-10-12T05:46:58;11.00;;;5.57;;
5696;SDS011;2873;50.966;7.210;2022-10-12T05:49:23;6.83;;;4.30;;
5696;SDS011;2873;50.966;7.210;2022-10-12T05:51:49;6.82;;;4.65;;
5696;SDS011;2873;50.966;7.210;2022-10-12T05:54:15;5.97;;;4.00;;
5696;SDS011;2873;50.966;7.210;2022-10-12T05:56:40;7.40;;;4.10;;
5696;SDS011;2873;50.966;7.210;2022-10-12T05:59:06;6.32;;;4.35;;
5696;SDS011;2873;50.966;7.210;2022-10-12T06:01:32;8.47;;;4.10;;
5696;SDS011;2873;50.966;7.210;2022-10-12T06:03:57;12.33;;;5.10;;
5696;SDS011;2873;50.966;7.210;2022-10-12T06:06:23;6.93;;;4.50;;
5696;SDS011;2873;50.966;7.210;2022-10-12T06:08:48;6.60;;;4.60;;
5696;SDS011;2873;50.966;7.210;2022-10-12T06:11:14;7.45;;;5.13;;
5696;SDS011;2873;50.966;7.210;2022-10-12T06:13:40;10.27;;;5.00;;
5696;SDS011;2873;50.966;7.210;2022-10-12T06:16:05;5.87;;;4.10;;
5696;SDS011;2873;50.966;7.210;2022-10-12T06:18:31;8.15;;;4.05;;
5696;SDS011;2873;50.966;7.210;2022-10-12T06:20:57;12.13;;;4.38;;
5696;SDS011;2873;50.966;7.210;2022-10-12T06:23:23;11.70;;;3.90;;
5696;SDS011;2873;50.966;7.210;2022-10-12T06:25:49;8.80;;;4.20;;
5696;SDS011;2873;50.966;7.210;2022-10-12T06:28:16;7.10;;;3.95;;
5696;SDS011;2873;50.966;7.210;2022-10-12T06:30:44;4.10;;;3.70;;
5696;SDS011;2873;50.966;7.210;2022-10-12T06:33:10;7.30;;;3.77;;
5696;SDS011;2873;50.966;7.210;2022-10-12T06:35:35;7.93;;;3.73;;
5696;SDS011;2873;50.966;7.210;2022-10-12T06:38:01;7.57;;;3.92;;
5696;SDS011;2873;50.966;7.210;2022-10-12T06:40:27;8.00;;;4.50;;
5696;SDS011;2873;50.966;7.210;2022-10-12T06:42:52;6.93;;;4.20;;
5696;SDS011;2873;50.966;7.210;2022-10-12T06:45:18;7.63;;;4.47;;
5696;SDS011;2873;50.966;7.210;2022-10-12T06:47:43;14.47;;;4.20;;
5696;SDS011;2873;50.966;7.210;2022-10-12T06:50:11;6.95;;;4.10;;
5696;SDS011;2873;50.966;7.210;2022-10-12T06:52:36;6.47;;;4.00;;
5696;SDS011;2873;50.966;7.210;2022-10-12T06:55:02;10.07;;;6.70;;
5696;SDS011;2873;50.966;7.210;2022-10-12T06:57:29;9.57;;;5.40;;
5696;SDS011;2873;50.966;7.210;2022-10-12T06:59:54;9.00;;;4.67;;
5696;SDS011;2873;50.966;7.210;2022-10-12T07:02:20;11.45;;;4.93;;
5696;SDS011;2873;50.966;7.210;2022-10-12T07:04:49;10.17;;;5.47;;
5696;SDS011;2873;50.966;7.210;2022-10-12T07:07:15;10.02;;;5.40;;
5696;SDS011;2873;50.966;7.210;2022-10-12T07:09:41;10.68;;;5.53;;
5696;SDS011;2873;50.966;7.210;2022-10-12T07:12:07;10.65;;;6.00;;
5696;SDS011;2873;50.966;7.210;2022-10-12T07:14:32;11.13;;;5.90;;
5696;SDS011;2873;50.966;7.210;2022-10-12T07:16:58;10.35;;;5.90;;
5696;SDS011;2873;50.966;7.210;2022-10-12T07:19:23;13.70;;;6.30;;
5696;SDS011;2873;50.966;7.210;2022-10-12T07:21:49;12.38;;;7.15;;
5696;SDS011;2873;50.966;7.210;2022-10-12T07:24:14;23.90;;;9.60;;
5696;SDS011;2873;50.966;7.210;2022-10-12T07:26:40;25.27;;;10.02;;
5696;SDS011;2873;50.966;7.210;2022-10-12T07:29:06;20.93;;;8.37;;
5696;SDS011;2873;50.966;7.210;2022-10-12T07:31:31;17.80;;;7.60;;
5696;SDS011;2873;50.966;7.210;2022-10-12T07:33:57;14.73;;;6.87;;
5696;SDS011;2873;50.966;7.210;2022-10-12T07:36:22;12.15;;;6.10;;
5696;SDS011;2873;50.966;7.210;2022-10-12T07:38:48;12.07;;;5.87;;
5696;SDS011;2873;50.966;7.210;2022-10-12T07:41:14;13.85;;;5.00;;
5696;SDS011;2873;50.966;7.210;2022-10-12T07:43:40;10.35;;;4.88;;
5696;SDS011;2873;50.966;7.210;2022-10-12T07:46:05;8.90;;;4.35;;
5696;SDS011;2873;50.966;7.210;2022-10-12T07:48:31;12.05;;;4.20;;
5696;SDS011;2873;50.966;7.210;2022-10-12T07:51:04;8.52;;;4.30;;
5696;SDS011;2873;50.966;7.210;2022-10-12T07:53:34;12.65;;;4.22;;
5696;SDS011;2873;50.966;7.210;2022-10-12T07:56:01;10.65;;;4.80;;
5696;SDS011;2873;50.966;7.210;2022-10-12T07:58:29;13.45;;;4.10;;
5696;SDS011;2873;50.966;7.210;2022-10-12T08:00:55;14.50;;;4.28;;
5696;SDS011;2873;50.966;7.210;2022-10-12T08:03:28;8.95;;;4.18;;
5696;SDS011;2873;50.966;7.210;2022-10-12T08:05:53;7.97;;;3.10;;
5696;SDS011;2873;50.966;7.210;2022-10-12T08:08:19;7.55;;;3.20;;
5696;SDS011;2873;50.966;7.210;2022-10-12T08:10:44;8.93;;;3.30;;
5696;SDS011;2873;50.966;7.210;2022-10-12T08:13:10;6.53;;;3.47;;
5696;SDS011;2873;50.966;7.210;2022-10-12T08:15:35;4.93;;;3.00;;
5696;SDS011;2873;50.966;7.210;2022-10-12T08:18:01;4.60;;;3.00;;
5696;SDS011;2873;50.966;7.210;2022-10-12T08:20:26;5.90;;;2.80;;
5696;SDS011;2873;50.966;7.210;2022-10-12T08:22:52;12.20;;;3.70;;
5696;SDS011;2873;50.966;7.210;2022-10-12T08:25:18;6.35;;;3.78;;
5696;SDS011;2873;50.966;7.210;2022-10-12T08:27:44;7.93;;;3.00;;
5696;SDS011;2873;50.966;7.210;2022-10-12T08:30:10;9.35;;;3.40;;
5696;SDS011;2873;50.966;7.210;2022-10-12T08:32:36;6.25;;;3.53;;
5696;SDS011;2873;50.966;7.210;2022-10-12T08:35:01;5.63;;;3.00;;
5696;SDS011;2873;50.966;7.210;2022-10-12T08:37:28;9.63;;;2.88;;
5696;SDS011;2873;50.966;7.210;2022-10-12T08:39:54;7.53;;;3.40;;
5696;SDS011;2873;50.966;7.210;2022-10-12T08:45:04;9.02;;;3.20;;
5696;SDS011;2873;50.966;7.210;2022-10-12T08:47:41;7.20;;;3.60;;
5696;SDS011;2873;50.966;7.210;2022-10-12T08:50:13;6.30;;;3.00;;
5696;SDS011;2873;50.966;7.210;2022-10-12T08:53:00;8.45;;;3.10;;
5696;SDS011;2873;50.966;7.210;2022-10-12T08:55:42;7.75;;;3.00;;
5696;SDS011;2873;50.966;7.210;2022-10-12T08:58:11;6.38;;;3.17;;
5696;SDS011;2873;50.966;7.210;2022-10-12T09:00:40;7.72;;;3.00;;
5696;SDS011;2873;50.966;7.210;2022-10-12T09:06:21;10.05;;;3.50;;
5696;SDS011;2873;50.966;7.210;2022-10-12T09:14:23;7.75;;;2.92;;
5696;SDS011;2873;50.966;7.210;2022-10-12T09:16:54;5.55;;;3.40;;
5696;SDS011;2873;50.966;7.210;2022-10-12T09:19:23;5.88;;;2.70;;
5696;SDS011;2873;50.966;7.210;2022-10-12T09:21:58;5.93;;;3.00;;
5696;SDS011;2873;50.966;7.210;2022-10-12T09:24:27;8.35;;;2.60;;
5696;SDS011;2873;50.966;7.210;2022-10-12T09:26:59;5.50;;;2.70;;
5696;SDS011;2873;50.966;7.210;2022-10-12T09:29:40;5.85;;;3.00;;
5696;SDS011;2873;50.966;7.210;2022-10-12T09:34:36;7.35;;;3.20;;
5696;SDS011;2873;50.966;7.210;2022-10-12T09:37:02;5.50;;;3.22;;
5696;SDS011;2873;50.966;7.210;2022-10-12T09:41:56;8.88;;;2.63;;
5696;SDS011;2873;50.966;7.210;2022-10-12T09:44:24;5.97;;;2.80;;
5696;SDS011;2873;50.966;7.210;2022-10-12T09:47:04;6.32;;;2.80;;
5696;SDS011;2873;50.966;7.210;2022-10-12T09:49:49;6.90;;;3.10;;
5696;SDS011;2873;50.966;7.210;2022-10-12T09:52:17;4.68;;;2.53;;
5696;SDS011;2873;50.966;7.210;2022-10-12T09:55:04;5.03;;;3.47;;
5696;SDS011;2873;50.966;7.210;2022-10-12T09:57:32;11.20;;;4.10;;
5696;SDS011;2873;50.966;7.210;2022-10-12T10:00:03;12.85;;;4.57;;
5696;SDS011;2873;50.966;7.210;2022-10-12T10:02:30;6.93;;;3.05;;
5696;SDS011;2873;50.966;7.210;2022-10-12T10:05:13;9.63;;;2.90;;
5696;SDS011;2873;50.966;7.210;2022-10-12T10:08:11;7.75;;;3.30;;
5696;SDS011;2873;50.966;7.210;2022-10-12T10:10:50;6.90;;;3.25;;
5696;SDS011;2873;50.966;7.210;2022-10-12T10:13:24;7.93;;;3.00;;
5696;SDS011;2873;50.966;7.210;2022-10-12T10:16:03;6.90;;;3.03;;
5696;SDS011;2873;50.966;7.210;2022-10-12T10:18:35;6.10;;;2.60;;
5696;SDS011;2873;50.966;7.210;2022-10-12T10:21:02;5.30;;;3.00;;
5696;SDS011;2873;50.966;7.210;2022-10-12T10:23:30;10.10;;;3.47;;
5696;SDS011;2873;50.966;7.210;2022-10-12T10:28:35;8.98;;;3.03;;
5696;SDS011;2873;50.966;7.210;2022-10-12T10:34:02;6.90;;;2.90;;
5696;SDS011;2873;50.966;7.210;2022-10-12T10:36:31;5.80;;;2.60;;
5696;SDS011;2873;50.966;7.210;2022-10-12T10:39:02;6.55;;;2.78;;
5696;SDS011;2873;50.966;7.210;2022-10-12T10:41:39;6.73;;;2.80;;
5696;SDS011;2873;50.966;7.210;2022-10-12T10:44:40;5.10;;;2.75;;
5696;SDS011;2873;50.966;7.210;2022-10-12T10:47:07;9.43;;;2.60;;
5696;SDS011;2873;50.966;7.210;2022-10-12T10:49:36;8.77;;;2.60;;
5696;SDS011;2873;50.966;7.210;2022-10-12T10:52:05;4.72;;;2.50;;
5696;SDS011;2873;50.966;7.210;2022-10-12T10:54:42;7.00;;;2.80;;
5696;SDS011;2873;50.966;7.210;2022-10-12T10:57:09;8.55;;;2.90;;
5696;SDS011;2873;50.966;7.210;2022-10-12T10:59:50;7.22;;;2.60;;
5696;SDS011;2873;50.966;7.210;2022-10-12T11:02:27;9.07;;;2.80;;
5696;SDS011;2873;50.966;7.210;2022-10-12T11:05:19;6.75;;;2.80;;
5696;SDS011;2873;50.966;7.210;2022-10-12T11:10:33;5.82;;;2.67;;
5696;SDS011;2873;50.966;7.210;2022-10-12T11:13:05;3.87;;;2.50;;
5696;SDS011;2873;50.966;7.210;2022-10-12T11:15:53;8.75;;;2.78;;
5696;SDS011;2873;50.966;7.210;2022-10-12T11:18:38;8.88;;;2.78;;
5696;SDS011;2873;50.966;7.210;2022-10-12T11:21:14;4.75;;;2.70;;
5696;SDS011;2873;50.966;7.210;2022-10-12T11:23:52;5.38;;;2.60;;
5696;SDS011;2873;50.966;7.210;2022-10-12T11:26:42;7.10;;;2.50;;
5696;SDS011;2873;50.966;7.210;2022-10-12T11:29:12;5.63;;;2.38;;
5696;SDS011;2873;50.966;7.210;2022-10-12T11:31:41;9.10;;;2.88;;
5696;SDS011;2873;50.966;7.210;2022-10-12T11:34:14;7.15;;;2.20;;
5696;SDS011;2873;50.966;7.210;2022-10-12T11:36:44;7.20;;;2.75;;
5696;SDS011;2873;50.966;7.210;2022-10-12T11:39:16;9.23;;;2.97;;
5696;SDS011;2873;50.966;7.210;2022-10-12T11:41:54;7.03;;;2.95;;
5696;SDS011;2873;50.966;7.210;2022-10-12T11:44:26;8.23;;;3.20;;
5696;SDS011;2873;50.966;7.210;2022-10-12T11:47:04;8.32;;;2.83;;
5696;SDS011;2873;50.966;7.210;2022-10-12T11:52:19;9.50;;;2.60;;
5696;SDS011;2873;50.966;7.210;2022-10-12T11:54:51;6.00;;;2.63;;
5696;SDS011;2873;50.966;7.210;2022-10-12T11:57:38;7.88;;;2.40;;
5696;SDS011;2873;50.966;7.210;2022-10-12T12:00:04;5.90;;;2.70;;
5696;SDS011;2873;50.966;7.210;2022-10-12T12:02:41;4.55;;;2.15;;
5696;SDS011;2873;50.966;7.210;2022-10-12T12:05:13;5.72;;;2.92;;
5696;SDS011;2873;50.966;7.210;2022-10-12T12:18:28;7.73;;;3.30;;
5696;SDS011;2873;50.966;7.210;2022-10-12T12:21:01;8.25;;;5.40;;
5696;SDS011;2873;50.966;7.210;2022-10-12T12:26:28;7.35;;;3.58;;
5696;SDS011;2873;50.966;7.210;2022-10-12T12:29:08;5.85;;;3.45;;
5696;SDS011;2873;50.966;7.210;2022-10-12T12:31:36;10.95;;;4.47;;
5696;SDS011;2873;50.966;7.210;2022-10-12T12:34:14;8.95;;;3.85;;
5696;SDS011;2873;50.966;7.210;2022-10-12T12:36:42;12.90;;;4.20;;
5696;SDS011;2873;50.966;7.210;2022-10-12T12:39:20;12.55;;;4.60;;
5696;SDS011;2873;50.966;7.210;2022-10-12T12:49:49;9.32;;;3.70;;
5696;SDS011;2873;50.966;7.210;2022-10-12T12:52:21;5.45;;;3.47;;
5696;SDS011;2873;50.966;7.210;2022-10-12T12:54:57;7.93;;;3.80;;
5696;SDS011;2873;50.966;7.210;2022-10-12T12:58:02;9.40;;;3.70;;
5696;SDS011;2873;50.966;7.210;2022-10-12T13:00:45;6.38;;;2.83;;
5696;SDS011;2873;50.966;7.210;2022-10-12T13:06:26;8.35;;;3.40;;
5696;SDS011;2873;50.966;7.210;2022-10-12T13:12:20;8.20;;;4.22;;
5696;SDS011;2873;50.966;7.210;2022-10-12T13:20:43;6.55;;;4.07;;
5696;SDS011;2873;50.966;7.210;2022-10-12T13:23:13;7.45;;;3.70;;
5696;SDS011;2873;50.966;7.210;2022-10-12T13:25:42;7.13;;;3.60;;
5696;SDS011;2873;50.966;7.210;2022-10-12T13:28:23;9.77;;;4.20;;
5696;SDS011;2873;50.966;7.210;2022-10-12T13:30:53;7.68;;;3.80;;
5696;SDS011;2873;50.966;7.210;2022-10-12T13:33:35;11.18;;;4.50;;
5696;SDS011;2873;50.966;7.210;2022-10-12T13:36:08;9.05;;;4.53;;
5696;SDS011;2873;50.966;7.210;2022-10-12T13:38:42;8.50;;;4.63;;
5696;SDS011;2873;50.966;7.210;2022-10-12T13:41:17;10.13;;;4.75;;
5696;SDS011;2873;50.966;7.210;2022-10-12T13:43:58;10.55;;;5.20;;
5696;SDS011;2873;50.966;7.210;2022-10-12T13:49:13;15.30;;;5.05;;
5696;SDS011;2873;50.966;7.210;2022-10-12T13:51:48;13.80;;;5.65;;
5696;SDS011;2873;50.966;7.210;2022-10-12T13:54:37;22.05;;;7.22;;
5696;SDS011;2873;50.966;7.210;2022-10-12T14:02:39;7.80;;;4.70;;
5696;SDS011;2873;50.966;7.210;2022-10-12T14:05:14;14.48;;;5.70;;
5696;SDS011;2873;50.966;7.210;2022-10-12T14:07:42;9.65;;;5.07;;
5696;SDS011;2873;50.966;7.210;2022-10-12T14:10:15;10.90;;;4.57;;
5696;SDS011;2873;50.966;7.210;2022-10-12T14:12:45;7.82;;;4.30;;
5696;SDS011;2873;50.966;7.210;2022-10-12T14:15:14;6.88;;;4.00;;
5696;SDS011;2873;50.966;7.210;2022-10-12T14:17:43;5.70;;;4.03;;
5696;SDS011;2873;50.966;7.210;2022-10-12T14:20:25;6.80;;;3.90;;
5696;SDS011;2873;50.966;7.210;2022-10-12T14:22:52;6.07;;;3.80;;
5696;SDS011;2873;50.966;7.210;2022-10-12T14:25:22;8.63;;;4.27;;
5696;SDS011;2873;50.966;7.210;2022-10-12T14:27:54;10.02;;;3.90;;
5696;SDS011;2873;50.966;7.210;2022-10-12T14:30:32;7.18;;;4.40;;
5696;SDS011;2873;50.966;7.210;2022-10-12T14:35:39;7.50;;;4.25;;
5696;SDS011;2873;50.966;7.210;2022-10-12T14:46:45;7.30;;;4.53;;
5696;SDS011;2873;50.966;7.210;2022-10-12T14:49:42;9.60;;;4.68;;
5696;SDS011;2873;50.966;7.210;2022-10-12T14:52:16;10.03;;;4.10;;
5696;SDS011;2873;50.966;7.210;2022-10-12T14:54:54;12.50;;;4.63;;
5696;SDS011;2873;50.966;7.210;2022-10-12T14:57:21;7.57;;;4.00;;
5696;SDS011;2873;50.966;7.210;2022-10-12T14:59:48;8.75;;;5.10;;
5696;SDS011;2873;50.966;7.210;2022-10-12T15:02:21;8.98;;;4.50;;
5696;SDS011;2873;50.966;7.210;2022-10-12T15:04:54;11.27;;;4.68;;
5696;SDS011;2873;50.966;7.210;2022-10-12T15:07:31;9.20;;;4.70;;
5696;SDS011;2873;50.966;7.210;2022-10-12T15:09:58;10.13;;;4.60;;
5696;SDS011;2873;50.966;7.210;2022-10-12T15:12:24;9.07;;;4.80;;
5696;SDS011;2873;50.966;7.210;2022-10-12T15:14:52;6.05;;;3.83;;
5696;SDS011;2873;50.966;7.210;2022-10-12T15:17:19;10.50;;;4.30;;
5696;SDS011;2873;50.966;7.210;2022-10-12T15:19:45;9.50;;;5.10;;
5696;SDS011;2873;50.966;7.210;2022-10-12T15:22:17;7.57;;;4.47;;
5696;SDS011;2873;50.966;7.210;2022-10-12T15:24:44;8.15;;;4.07;;
5696;SDS011;2873;50.966;7.210;2022-10-12T15:27:11;7.85;;;4.00;;
5696;SDS011;2873;50.966;7.210;2022-10-12T15:29:37;7.80;;;4.15;;
5696;SDS011;2873;50.966;7.210;2022-10-12T15:32:03;10.57;;;4.50;;
5696;SDS011;2873;50.966;7.210;2022-10-12T15:34:29;6.50;;;4.13;;
5696;SDS011;2873;50.966;7.210;2022-10-12T15:36:55;9.00;;;4.80;;
5696;SDS011;2873;50.966;7.210;2022-10-12T15:39:21;8.85;;;4.55;;
5696;SDS011;2873;50.966;7.210;2022-10-12T15:41:46;7.70;;;4.20;;
5696;SDS011;2873;50.966;7.210;2022-10-12T15:44:12;8.90;;;4.77;;
5696;SDS011;2873;50.966;7.210;2022-10-12T15:46:39;7.88;;;4.82;;
5696;SDS011;2873;50.966;7.210;2022-10-12T15:49:06;11.90;;;5.40;;
5696;SDS011;2873;50.966;7.210;2022-10-12T15:51:32;14.90;;;5.40;;
5696;SDS011;2873;50.966;7.210;2022-10-12T15:54:03;10.27;;;5.07;;
5696;SDS011;2873;50.966;7.210;2022-10-12T15:56:29;9.20;;;4.57;;
5696;SDS011;2873;50.966;7.210;2022-10-12T15:58:55;10.10;;;4.50;;
5696;SDS011;2873;50.966;7.210;2022-10-12T16:01:20;8.93;;;4.47;;
5696;SDS011;2873;50.966;7.210;2022-10-12T16:03:46;12.45;;;4.13;;
5696;SDS011;2873;50.966;7.210;2022-10-12T16:06:12;8.23;;;4.07;;
5696;SDS011;2873;50.966;7.210;2022-10-12T16:08:39;7.90;;;4.43;;
5696;SDS011;2873;50.966;7.210;2022-10-12T16:11:05;10.43;;;4.40;;
5696;SDS011;2873;50.966;7.210;2022-10-12T16:13:32;9.82;;;4.55;;
5696;SDS011;2873;50.966;7.210;2022-10-12T16:15:58;13.13;;;5.88;;
5696;SDS011;2873;50.966;7.210;2022-10-12T16:18:24;10.33;;;5.10;;
5696;SDS011;2873;50.966;7.210;2022-10-12T16:20:50;10.13;;;5.32;;
5696;SDS011;2873;50.966;7.210;2022-10-12T16:23:21;9.25;;;5.95;;
5696;SDS011;2873;50.966;7.210;2022-10-12T16:25:55;12.38;;;5.40;;
5696;SDS011;2873;50.966;7.210;2022-10-12T16:28:21;15.85;;;4.70;;
5696;SDS011;2873;50.966;7.210;2022-10-12T16:30:48;6.88;;;4.90;;
5696;SDS011;2873;50.966;7.210;2022-10-12T16:33:14;18.77;;;13.55;;
5696;SDS011;2873;50.966;7.210;2022-10-12T16:35:40;14.55;;;7.07;;
5696;SDS011;2873;50.966;7.210;2022-10-12T16:38:06;14.00;;;5.43;;
5696;SDS011;2873;50.966;7.210;2022-10-12T16:40:33;12.80;;;5.00;;
5696;SDS011;2873;50.966;7.210;2022-10-12T16:42:59;11.63;;;4.55;;
5696;SDS011;2873;50.966;7.210;2022-10-12T16:45:25;10.40;;;4.73;;
5696;SDS011;2873;50.966;7.210;2022-10-12T16:47:51;13.45;;;5.00;;
5696;SDS011;2873;50.966;7.210;2022-10-12T16:50:18;15.90;;;6.20;;
5696;SDS011;2873;50.966;7.210;2022-10-12T16:52:44;13.05;;;6.30;;
5696;SDS011;2873;50.966;7.210;2022-10-12T16:55:09;11.63;;;6.90;;
5696;SDS011;2873;50.966;7.210;2022-10-12T16:57:36;15.40;;;6.93;;
5696;SDS011;2873;50.966;7.210;2022-10-12T17:00:03;12.57;;;6.53;;
5696;SDS011;2873;50.966;7.210;2022-10-12T17:02:30;21.42;;;7.93;;
5696;SDS011;2873;50.966;7.210;2022-10-12T17:04:55;11.33;;;6.50;;
5696;SDS011;2873;50.966;7.210;2022-10-12T17:07:22;13.38;;;5.93;;
5696;SDS011;2873;50.966;7.210;2022-10-12T17:09:47;13.30;;;5.90;;